Time;durP1;ratioP1;P1;durP2;ratioP2;P2;SDS_P1;SDS_P2;PMS_P1;PMS_P2;Temp;Humidity;BMP_temperature;BMP_pressure;BME280_temperature;BME280_humidity;BME280_pressure;Samples;Min_cycle;Max_cycle;Signal;HPM_P1;HPM_P2
2021/12/07 00:00:33;;;;;;;1.50;1.40;;;;;;;;;;5087639;28;20230;-64
2021/12/07 00:03:21;;;;;;;1.53;1.43;;;;;;;;;;5084381;28;20276;-64
2021/12/07 00:06:10;;;;;;;1.17;1.17;;;;;;;;;;5088422;28;20215;-65
2021/12/07 00:08:57;;;;;;;1.03;1.03;;;;;;;;;;5088967;28;20206;-64
2021/12/07 00:11:45;;;;;;;1.10;1.10;;;;;;;;;;5068705;28;20570;-64
2021/12/07 00:14:38;;;;;;;1.37;1.27;;;;;;;;;;5069580;28;20226;-64
2021/12/07 00:17:25;;;;;;;1.17;1.17;;;;;;;;;;5071131;28;20206;-65
2021/12/07 00:20:15;;;;;;;1.03;1.03;;;;;;;;;;5070712;28;20728;-64
2021/12/07 00:23:07;;;;;;;1.20;1.20;;;;;;;;;;5070731;28;20200;-64
2021/12/07 00:25:54;;;;;;;0.93;0.93;;;;;;;;;;5069964;28;20245;-64
2021/12/07 00:28:43;;;;;;;0.83;0.83;;;;;;;;;;5061978;28;20206;-64
2021/12/07 00:31:37;;;;;;;0.90;0.90;;;;;;;;;;5070135;28;20200;-64
2021/12/07 00:34:43;;;;;;;1.03;0.93;;;;;;;;;;5080624;28;20229;-64
2021/12/07 00:37:35;;;;;;;0.97;0.97;;;;;;;;;;5092810;28;20206;-65
2021/12/07 00:40:25;;;;;;;0.73;0.73;;;;;;;;;;5083869;28;20294;-64
2021/12/07 00:43:13;;;;;;;0.63;0.63;;;;;;;;;;5072547;28;20265;-64
2021/12/07 00:46:01;;;;;;;0.90;0.90;;;;;;;;;;5080133;28;20214;-64
2021/12/07 00:48:48;;;;;;;0.57;0.57;;;;;;;;;;5072132;28;20792;-64
2021/12/07 00:51:35;;;;;;;0.90;0.90;;;;;;;;;;5076290;28;20198;-64
2021/12/07 00:54:22;;;;;;;0.70;0.70;;;;;;;;;;5091254;28;20253;-64
2021/12/07 00:57:11;;;;;;;0.80;0.80;;;;;;;;;;5091886;28;20681;-64
2021/12/07 00:59:57;;;;;;;0.77;0.77;;;;;;;;;;5091275;28;20229;-64
2021/12/07 01:02:45;;;;;;;0.70;0.70;;;;;;;;;;5089779;28;20255;-64
2021/12/07 01:05:34;;;;;;;0.70;0.70;;;;;;;;;;5089208;28;20215;-64
2021/12/07 01:08:47;;;;;;;0.80;0.80;;;;;;;;;;5092383;28;20686;-64
2021/12/07 01:26:58;;;;;;;0.70;0.70;;;;;;;;;;5071073;28;20278;-64
2021/12/07 01:30:05;;;;;;;0.70;0.70;;;;;;;;;;5071465;28;20195;-64
2021/12/07 01:33:08;;;;;;;0.90;0.90;;;;;;;;;;5071873;28;20328;-64
2021/12/07 01:36:08;;;;;;;0.60;0.60;;;;;;;;;;5071504;28;20191;-64
2021/12/07 01:45:47;;;;;;;0.70;0.70;;;;;;;;;;5090912;28;20244;-65
2021/12/07 01:51:51;;;;;;;0.80;0.80;;;;;;;;;;5066188;28;20292;-64
2021/12/07 01:59:32;;;;;;;0.73;0.73;;;;;;;;;;5090481;28;20227;-64
2021/12/07 02:01:14;;;;;;;0.70;0.70;;;;;;;;;;5089936;28;20586;-64
2021/12/07 02:04:01;;;;;;;0.70;0.70;;;;;;;;;;5088518;28;20254;-64
2021/12/07 02:06:48;;;;;;;0.60;0.60;;;;;;;;;;5091102;28;20749;-64
2021/12/07 02:09:37;;;;;;;0.70;0.70;;;;;;;;;;5090437;28;20230;-64
2021/12/07 02:12:24;;;;;;;0.70;0.70;;;;;;;;;;5090467;28;20199;-64
2021/12/07 02:15:13;;;;;;;0.60;0.60;;;;;;;;;;5090652;28;20594;-64
2021/12/07 02:18:02;;;;;;;0.77;0.77;;;;;;;;;;5089682;28;20214;-64
2021/12/07 02:20:50;;;;;;;0.57;0.57;;;;;;;;;;5102031;28;20229;-64
2021/12/07 02:23:37;;;;;;;0.57;0.57;;;;;;;;;;5111240;28;20239;-64
2021/12/07 02:26:24;;;;;;;0.43;0.43;;;;;;;;;;5110576;28;20282;-64
2021/12/07 02:29:11;;;;;;;0.97;0.97;;;;;;;;;;5110944;28;20282;-64
2021/12/07 02:32:01;;;;;;;0.50;0.50;;;;;;;;;;5110956;28;20310;-64
2021/12/07 02:34:57;;;;;;;0.50;0.50;;;;;;;;;;5110142;28;20228;-64
2021/12/07 02:37:45;;;;;;;0.73;0.73;;;;;;;;;;5110606;28;20205;-64
2021/12/07 02:40:32;;;;;;;0.60;0.60;;;;;;;;;;5100234;28;20690;-64
2021/12/07 02:43:19;;;;;;;0.70;0.70;;;;;;;;;;5090932;28;20210;-64
2021/12/07 02:46:06;;;;;;;0.80;0.80;;;;;;;;;;5089862;28;20267;-64
2021/12/07 02:48:53;;;;;;;0.60;0.60;;;;;;;;;;5090745;28;20681;-66
2021/12/07 02:51:40;;;;;;;0.70;0.70;;;;;;;;;;5090694;28;20664;-64
2021/12/07 02:54:28;;;;;;;0.80;0.80;;;;;;;;;;5090418;28;20275;-64
2021/12/07 02:57:17;;;;;;;0.63;0.50;;;;;;;;;;5090853;28;20282;-64
2021/12/07 03:00:11;;;;;;;0.70;0.70;;;;;;;;;;5089589;28;20238;-64
2021/12/07 03:03:03;;;;;;;0.63;0.63;;;;;;;;;;5092001;28;20580;-64
2021/12/07 03:06:03;;;;;;;0.80;0.80;;;;;;;;;;5109753;28;20661;-64
2021/12/07 03:09:38;;;;;;;0.50;0.50;;;;;;;;;;5110233;28;20197;-64
2021/12/07 03:27:47;;;;;;;0.80;0.80;;;;;;;;;;5110045;28;20197;-64
2021/12/07 03:30:35;;;;;;;0.70;0.70;;;;;;;;;;5110020;28;20262;-65
2021/12/07 03:33:22;;;;;;;0.87;0.87;;;;;;;;;;5109151;28;20285;-64
2021/12/07 03:36:11;;;;;;;0.70;0.70;;;;;;;;;;5109673;28;20198;-64
2021/12/07 03:38:58;;;;;;;0.90;0.90;;;;;;;;;;5109675;28;20669;-64
2021/12/07 03:41:45;;;;;;;0.70;0.70;;;;;;;;;;5090245;28;20356;-64
2021/12/07 03:44:33;;;;;;;0.90;0.90;;;;;;;;;;5089289;28;20198;-64
2021/12/07 03:47:20;;;;;;;0.70;0.70;;;;;;;;;;5088765;28;20292;-64
2021/12/07 03:50:11;;;;;;;0.93;0.93;;;;;;;;;;5090825;28;20316;-64
2021/12/07 03:52:58;;;;;;;0.73;0.73;;;;;;;;;;5093714;28;20206;-64
2021/12/07 03:55:45;;;;;;;0.60;0.60;;;;;;;;;;5092668;28;20303;-64
2021/12/07 03:58:32;;;;;;;0.70;0.70;;;;;;;;;;5094160;28;20225;-65
2021/12/07 04:01:23;;;;;;;0.87;0.87;;;;;;;;;;5110633;28;20354;-64
2021/12/07 04:04:10;;;;;;;0.90;0.90;;;;;;;;;;5109361;28;20228;-64
2021/12/07 04:06:57;;;;;;;0.70;0.70;;;;;;;;;;5094841;28;20225;-64
2021/12/07 04:09:44;;;;;;;0.60;0.60;;;;;;;;;;5111479;28;20298;-64
2021/12/07 04:12:31;;;;;;;0.80;0.80;;;;;;;;;;5113071;28;20202;-64
2021/12/07 04:15:19;;;;;;;0.90;0.90;;;;;;;;;;5112655;28;20304;-64
2021/12/07 04:18:09;;;;;;;0.80;0.80;;;;;;;;;;5112216;28;20294;-64
2021/12/07 04:20:56;;;;;;;0.70;0.70;;;;;;;;;;5113189;28;20771;-64
2021/12/07 04:23:44;;;;;;;0.70;0.70;;;;;;;;;;5114012;28;20208;-64
2021/12/07 04:26:31;;;;;;;0.70;0.70;;;;;;;;;;5113798;28;20721;-64
2021/12/07 04:29:18;;;;;;;0.67;0.67;;;;;;;;;;5113358;28;20201;-64
2021/12/07 04:32:06;;;;;;;0.80;0.80;;;;;;;;;;5113375;28;20288;-64
2021/12/07 04:34:54;;;;;;;0.63;0.63;;;;;;;;;;5113570;28;20263;-65
2021/12/07 04:37:42;;;;;;;0.70;0.70;;;;;;;;;;5114461;28;20256;-64
2021/12/07 04:40:31;;;;;;;0.70;0.70;;;;;;;;;;5104639;28;20255;-64
2021/12/07 04:43:18;;;;;;;0.80;0.80;;;;;;;;;;5112240;28;20246;-65
2021/12/07 04:46:11;;;;;;;0.70;0.70;;;;;;;;;;5111579;28;20685;-64
2021/12/07 04:58:18;;;;;;;0.70;0.70;;;;;;;;;;5112763;28;20193;-64
2021/12/07 05:01:09;;;;;;;0.80;0.80;;;;;;;;;;5097220;28;20693;-64
2021/12/07 05:03:58;;;;;;;0.50;0.50;;;;;;;;;;5104198;28;20225;-66
2021/12/07 05:06:49;;;;;;;0.80;0.80;;;;;;;;;;5113107;28;20202;-64
2021/12/07 05:10:10;;;;;;;0.67;0.67;;;;;;;;;;5110169;28;20201;-65
2021/12/07 05:16:24;;;;;;;0.90;0.90;;;;;;;;;;5085201;28;20275;-64
2021/12/07 05:26:03;;;;;;;0.90;0.90;;;;;;;;;;5092340;28;20697;-64
2021/12/07 05:38:06;;;;;;;1.37;1.37;;;;;;;;;;5092220;28;20202;-64
2021/12/07 05:40:55;;;;;;;1.10;1.10;;;;;;;;;;5092436;28;20238;-64
2021/12/07 05:43:42;;;;;;;1.40;1.40;;;;;;;;;;5091516;28;20292;-64
2021/12/07 05:46:29;;;;;;;1.20;1.20;;;;;;;;;;5091647;28;20320;-64
2021/12/07 05:49:16;;;;;;;1.10;1.10;;;;;;;;;;5091981;28;20230;-64
2021/12/07 05:52:04;;;;;;;1.37;1.30;;;;;;;;;;5090764;28;20276;-65
2021/12/07 05:54:51;;;;;;;1.27;1.27;;;;;;;;;;5091733;28;20375;-65
2021/12/07 05:57:40;;;;;;;1.20;1.20;;;;;;;;;;5091696;28;20656;-64
2021/12/07 06:00:30;;;;;;;1.30;1.30;;;;;;;;;;5091075;28;20287;-64
2021/12/07 06:03:17;;;;;;;1.53;1.43;;;;;;;;;;5094585;28;20206;-64
2021/12/07 06:06:04;;;;;;;1.43;1.43;;;;;;;;;;5101092;28;20255;-64
2021/12/07 06:08:51;;;;;;;1.20;1.13;;;;;;;;;;5103313;28;20306;-64
2021/12/07 06:11:38;;;;;;;1.60;1.60;;;;;;;;;;5111143;28;20256;-65
2021/12/07 06:14:31;;;;;;;1.50;1.40;;;;;;;;;;5110832;28;20201;-64
2021/12/07 06:17:18;;;;;;;1.37;1.27;;;;;;;;;;5100249;28;20198;-64
2021/12/07 06:20:06;;;;;;;1.20;1.20;;;;;;;;;;5089901;28;20261;-64
2021/12/07 06:22:53;;;;;;;1.10;1.10;;;;;;;;;;5094312;28;20238;-63
2021/12/07 06:25:40;;;;;;;1.40;1.30;;;;;;;;;;5091624;28;20210;-64
2021/12/07 06:28:27;;;;;;;1.27;1.27;;;;;;;;;;5111065;28;20687;-64
2021/12/07 06:31:15;;;;;;;1.17;1.17;;;;;;;;;;5090996;28;20323;-65
2021/12/07 06:34:03;;;;;;;1.40;1.00;;;;;;;;;;5112119;28;20281;-64
2021/12/07 06:36:50;;;;;;;1.10;1.10;;;;;;;;;;5107952;28;20229;-64
2021/12/07 06:39:37;;;;;;;0.90;0.90;;;;;;;;;;5111094;28;20201;-64
2021/12/07 06:42:24;;;;;;;0.90;0.90;;;;;;;;;;5100057;28;20242;-64
2021/12/07 06:45:11;;;;;;;0.93;0.93;;;;;;;;;;5090107;28;20195;-64
2021/12/07 06:48:00;;;;;;;1.00;1.00;;;;;;;;;;5105330;28;20258;-64
2021/12/07 06:50:47;;;;;;;0.90;0.90;;;;;;;;;;5109846;28;20228;-64
2021/12/07 06:53:36;;;;;;;0.90;0.90;;;;;;;;;;5090927;28;20282;-64
2021/12/07 06:56:23;;;;;;;1.00;1.00;;;;;;;;;;5091875;28;20236;-64
2021/12/07 06:59:10;;;;;;;0.80;0.80;;;;;;;;;;5109584;28;20259;-64
2021/12/07 07:01:57;;;;;;;0.73;0.73;;;;;;;;;;5102487;28;20352;-64
2021/12/07 07:04:46;;;;;;;0.90;0.90;;;;;;;;;;5103613;28;20788;-65
2021/12/07 07:07:34;;;;;;;0.70;0.70;;;;;;;;;;5101573;28;20288;-64
2021/12/07 07:10:21;;;;;;;0.90;0.80;;;;;;;;;;5110501;28;20360;-64
2021/12/07 07:13:08;;;;;;;0.70;0.70;;;;;;;;;;5092055;28;20211;-64
2021/12/07 07:15:55;;;;;;;0.70;0.70;;;;;;;;;;5105367;28;20596;-65
2021/12/07 07:18:43;;;;;;;0.60;0.60;;;;;;;;;;5101502;28;20209;-64
2021/12/07 07:21:31;;;;;;;0.80;0.80;;;;;;;;;;5109509;28;20293;-65
2021/12/07 07:24:18;;;;;;;0.77;0.77;;;;;;;;;;5109022;28;20230;-65
2021/12/07 07:27:05;;;;;;;0.50;0.50;;;;;;;;;;5109490;28;20323;-64
2021/12/07 07:29:53;;;;;;;0.70;0.70;;;;;;;;;;5103727;28;20206;-64
2021/12/07 07:32:41;;;;;;;0.70;0.70;;;;;;;;;;5107378;28;20262;-64
2021/12/07 07:35:29;;;;;;;0.80;0.80;;;;;;;;;;5088553;28;20696;-64
2021/12/07 07:38:17;;;;;;;0.80;0.80;;;;;;;;;;5109433;28;20708;-65
2021/12/07 07:41:05;;;;;;;0.70;0.70;;;;;;;;;;5108774;28;20585;-65
2021/12/07 07:43:52;;;;;;;0.60;0.60;;;;;;;;;;5109163;28;20215;-65
2021/12/07 07:46:39;;;;;;;0.93;0.93;;;;;;;;;;5093502;28;20630;-65
2021/12/07 07:49:26;;;;;;;0.70;0.70;;;;;;;;;;5102276;28;20205;-64
2021/12/07 07:52:13;;;;;;;0.80;0.80;;;;;;;;;;5106722;28;20198;-64
2021/12/07 07:55:01;;;;;;;0.73;0.73;;;;;;;;;;5107671;28;20673;-65
2021/12/07 07:57:48;;;;;;;0.80;0.80;;;;;;;;;;5110578;28;20690;-64
2021/12/07 08:00:36;;;;;;;0.70;0.70;;;;;;;;;;5092273;28;20210;-64
2021/12/07 08:03:23;;;;;;;0.80;0.80;;;;;;;;;;5089837;28;20210;-64
2021/12/07 08:06:10;;;;;;;1.00;1.00;;;;;;;;;;5109905;28;20703;-64
2021/12/07 08:08:58;;;;;;;0.70;0.70;;;;;;;;;;5110669;28;20204;-65
2021/12/07 08:11:46;;;;;;;0.90;0.90;;;;;;;;;;5088670;28;20332;-65
2021/12/07 08:14:33;;;;;;;0.80;0.80;;;;;;;;;;5091021;28;20281;-65
2021/12/07 08:17:20;;;;;;;1.00;1.00;;;;;;;;;;5109305;28;20257;-65
2021/12/07 08:20:09;;;;;;;0.90;0.90;;;;;;;;;;5109406;28;20286;-65
2021/12/07 08:22:56;;;;;;;0.80;0.80;;;;;;;;;;5110412;28;20225;-65
2021/12/07 08:25:45;;;;;;;0.60;0.60;;;;;;;;;;5109659;28;20347;-64
2021/12/07 08:28:34;;;;;;;0.80;0.80;;;;;;;;;;5107558;28;20285;-65
2021/12/07 08:31:21;;;;;;;0.70;0.70;;;;;;;;;;5094627;28;20254;-65
2021/12/07 08:34:08;;;;;;;0.87;0.87;;;;;;;;;;5089379;28;20230;-65
2021/12/07 08:36:55;;;;;;;0.97;0.97;;;;;;;;;;5091496;28;20258;-65
2021/12/07 08:39:42;;;;;;;0.70;0.70;;;;;;;;;;5097696;28;20233;-65
2021/12/07 08:42:29;;;;;;;0.87;0.87;;;;;;;;;;5113525;28;20223;-64
2021/12/07 08:45:18;;;;;;;0.70;0.70;;;;;;;;;;5112165;28;20288;-64
2021/12/07 08:48:05;;;;;;;0.70;0.70;;;;;;;;;;5112328;28;20640;-65
2021/12/07 08:50:53;;;;;;;0.77;0.77;;;;;;;;;;5113943;28;20576;-65
2021/12/07 08:53:47;;;;;;;0.80;0.80;;;;;;;;;;5112995;28;20317;-64
2021/12/07 08:59:43;;;;;;;0.57;0.57;;;;;;;;;;5112967;28;20193;-65
2021/12/07 09:02:33;;;;;;;0.70;0.70;;;;;;;;;;5111446;28;20234;-65
2021/12/07 09:05:20;;;;;;;0.70;0.70;;;;;;;;;;5109514;28;20299;-65
2021/12/07 09:08:07;;;;;;;0.60;0.60;;;;;;;;;;5112861;28;20278;-65
2021/12/07 09:10:54;;;;;;;0.60;0.60;;;;;;;;;;5111686;28;20291;-65
2021/12/07 09:13:41;;;;;;;0.50;0.50;;;;;;;;;;5113521;28;20205;-65
2021/12/07 09:16:29;;;;;;;0.50;0.50;;;;;;;;;;5112311;28;20765;-65
2021/12/07 09:19:18;;;;;;;0.70;0.70;;;;;;;;;;5108096;28;20861;-65
2021/12/07 09:22:06;;;;;;;0.80;0.80;;;;;;;;;;5090993;28;20725;-65
2021/12/07 09:24:53;;;;;;;0.50;0.50;;;;;;;;;;5091491;28;20210;-65
2021/12/07 09:27:40;;;;;;;0.60;0.60;;;;;;;;;;5110642;28;20675;-65
2021/12/07 09:30:27;;;;;;;0.50;0.50;;;;;;;;;;5111818;28;20339;-65
2021/12/07 09:33:14;;;;;;;0.57;0.57;;;;;;;;;;5094021;28;20206;-64
2021/12/07 09:36:04;;;;;;;0.70;0.70;;;;;;;;;;5103756;28;20291;-64
2021/12/07 09:38:51;;;;;;;0.63;0.63;;;;;;;;;;5097802;28;20263;-64
2021/12/07 09:41:39;;;;;;;0.60;0.60;;;;;;;;;;5111336;28;20281;-64
2021/12/07 09:44:26;;;;;;;0.57;0.57;;;;;;;;;;5106722;28;20209;-65
2021/12/07 09:47:13;;;;;;;0.53;0.53;;;;;;;;;;5092986;28;20199;-64
2021/12/07 09:50:00;;;;;;;0.67;0.67;;;;;;;;;;5107649;28;20267;-65
2021/12/07 09:52:49;;;;;;;0.50;0.50;;;;;;;;;;5090513;28;20198;-64
2021/12/07 09:55:37;;;;;;;0.50;0.50;;;;;;;;;;5109021;28;20251;-64
2021/12/07 09:58:24;;;;;;;0.50;0.50;;;;;;;;;;5108818;28;20241;-64
2021/12/07 10:01:12;;;;;;;0.50;0.50;;;;;;;;;;5110982;28;20316;-65
2021/12/07 10:03:59;;;;;;;0.50;0.50;;;;;;;;;;5109856;28;20270;-64
2021/12/07 10:06:46;;;;;;;0.53;0.53;;;;;;;;;;5095235;28;20587;-65
2021/12/07 10:09:34;;;;;;;0.50;0.50;;;;;;;;;;5102258;28;20228;-65
2021/12/07 10:12:23;;;;;;;0.60;0.60;;;;;;;;;;5110937;28;20298;-65
2021/12/07 10:15:11;;;;;;;0.43;0.40;;;;;;;;;;5108048;28;20285;-64
2021/12/07 10:18:04;;;;;;;0.40;0.40;;;;;;;;;;5092183;28;20222;-65
2021/12/07 10:20:56;;;;;;;0.60;0.60;;;;;;;;;;5096654;28;20270;-65
2021/12/07 10:23:46;;;;;;;0.50;0.50;;;;;;;;;;5105442;28;20202;-65
2021/12/07 10:26:38;;;;;;;0.40;0.40;;;;;;;;;;5110719;28;20205;-65
2021/12/07 10:29:27;;;;;;;0.50;0.50;;;;;;;;;;5107549;28;20217;-64
2021/12/07 10:32:13;;;;;;;0.60;0.60;;;;;;;;;;5104362;28;20289;-64
2021/12/07 10:35:01;;;;;;;0.50;0.50;;;;;;;;;;5111058;28;20276;-64
2021/12/07 10:38:10;;;;;;;0.50;0.50;;;;;;;;;;5110332;28;20304;-64
2021/12/07 10:40:59;;;;;;;0.47;0.47;;;;;;;;;;5106671;28;20573;-66
2021/12/07 10:43:52;;;;;;;0.80;0.53;;;;;;;;;;5099144;28;20662;-64
2021/12/07 10:46:48;;;;;;;0.60;0.60;;;;;;;;;;5095294;28;20209;-66
2021/12/07 10:49:39;;;;;;;0.60;0.60;;;;;;;;;;5107556;28;20190;-64
2021/12/07 10:52:29;;;;;;;0.83;0.83;;;;;;;;;;5108166;28;20611;-65
2021/12/07 10:55:19;;;;;;;0.60;0.60;;;;;;;;;;5105850;28;20263;-64
2021/12/07 10:58:06;;;;;;;0.80;0.80;;;;;;;;;;5110397;28;20766;-65
2021/12/07 11:00:54;;;;;;;0.50;0.50;;;;;;;;;;5108636;28;20667;-64
2021/12/07 11:03:41;;;;;;;0.40;0.40;;;;;;;;;;5106402;28;20729;-64
2021/12/07 11:06:28;;;;;;;0.50;0.50;;;;;;;;;;5105586;28;20198;-64
2021/12/07 11:09:15;;;;;;;0.63;0.63;;;;;;;;;;5094963;28;20284;-65
2021/12/07 11:12:07;;;;;;;0.50;0.50;;;;;;;;;;5089895;28;20283;-65
2021/12/07 11:14:59;;;;;;;0.40;0.40;;;;;;;;;;5089070;28;20195;-64
2021/12/07 11:17:47;;;;;;;0.50;0.50;;;;;;;;;;5089548;28;20234;-64
2021/12/07 11:20:35;;;;;;;0.63;0.63;;;;;;;;;;5089757;28;20281;-65
2021/12/07 11:23:26;;;;;;;0.47;0.47;;;;;;;;;;5090739;28;20210;-64
2021/12/07 11:29:40;;;;;;;0.77;0.77;;;;;;;;;;5111252;28;20193;-65
2021/12/07 11:32:28;;;;;;;0.70;0.70;;;;;;;;;;5111545;27;20679;-65
2021/12/07 11:35:22;;;;;;;0.40;0.40;;;;;;;;;;5110222;28;20232;-64
2021/12/07 11:38:09;;;;;;;0.60;0.60;;;;;;;;;;5093467;28;20395;-64
2021/12/07 11:41:14;;;;;;;0.50;0.50;;;;;;;;;;5102763;28;20846;-66
2021/12/07 11:44:05;;;;;;;0.60;0.60;;;;;;;;;;5109926;28;20231;-65
2021/12/07 11:46:53;;;;;;;0.57;0.57;;;;;;;;;;5110021;28;20284;-64
2021/12/07 11:49:41;;;;;;;0.67;0.67;;;;;;;;;;5109820;28;20336;-65
2021/12/07 11:52:29;;;;;;;0.60;0.60;;;;;;;;;;5110585;28;20234;-64
2021/12/07 11:55:17;;;;;;;0.60;0.60;;;;;;;;;;5094480;28;20285;-64
2021/12/07 11:58:08;;;;;;;0.60;0.60;;;;;;;;;;5106863;28;20304;-64
2021/12/07 12:00:57;;;;;;;0.60;0.60;;;;;;;;;;5097729;28;20281;-65
2021/12/07 12:03:44;;;;;;;0.70;0.70;;;;;;;;;;5095184;28;20298;-64
2021/12/07 12:06:32;;;;;;;0.47;0.47;;;;;;;;;;5109356;28;20683;-64
2021/12/07 12:09:22;;;;;;;0.63;0.63;;;;;;;;;;5109407;28;20189;-64
2021/12/07 12:12:17;;;;;;;0.40;0.40;;;;;;;;;;5091832;28;20191;-64
2021/12/07 12:15:22;;;;;;;0.50;0.50;;;;;;;;;;5092950;28;20674;-65
2021/12/07 12:18:15;;;;;;;0.50;0.50;;;;;;;;;;5092374;28;20323;-65
2021/12/07 12:21:12;;;;;;;0.50;0.50;;;;;;;;;;5080531;28;20326;-64
2021/12/07 12:24:14;;;;;;;0.70;0.70;;;;;;;;;;5073580;28;20214;-64
2021/12/07 12:27:11;;;;;;;0.30;0.30;;;;;;;;;;5072593;28;20198;-64
2021/12/07 12:30:00;;;;;;;0.50;0.50;;;;;;;;;;5073180;28;20235;-64
2021/12/07 12:32:53;;;;;;;0.50;0.50;;;;;;;;;;5071956;28;20273;-64
2021/12/07 12:35:43;;;;;;;0.50;0.50;;;;;;;;;;5071557;28;20202;-64
2021/12/07 12:38:31;;;;;;;0.50;0.50;;;;;;;;;;5071344;28;20706;-66
2021/12/07 12:41:18;;;;;;;1.07;0.50;;;;;;;;;;5072964;28;20207;-65
2021/12/07 12:44:10;;;;;;;0.50;0.50;;;;;;;;;;5073737;28;20773;-64
2021/12/07 12:46:59;;;;;;;0.40;0.40;;;;;;;;;;5072590;28;20757;-65
2021/12/07 12:49:46;;;;;;;0.50;0.50;;;;;;;;;;5071388;28;20292;-64
2021/12/07 12:52:44;;;;;;;0.50;0.50;;;;;;;;;;5072543;28;20267;-64
2021/12/07 12:55:35;;;;;;;0.50;0.50;;;;;;;;;;5072379;28;20236;-64
2021/12/07 12:58:38;;;;;;;0.60;0.60;;;;;;;;;;5071891;28;20219;-65
2021/12/07 13:01:28;;;;;;;0.60;0.60;;;;;;;;;;5071417;28;20210;-64
2021/12/07 13:04:16;;;;;;;0.60;0.60;;;;;;;;;;5079384;28;20226;-65
2021/12/07 13:10:06;;;;;;;0.60;0.60;;;;;;;;;;5078378;28;20290;-64
2021/12/07 13:12:54;;;;;;;0.60;0.60;;;;;;;;;;5092330;28;20692;-64
2021/12/07 13:15:45;;;;;;;0.60;0.60;;;;;;;;;;5092699;28;20206;-65
2021/12/07 13:18:33;;;;;;;1.50;0.50;;;;;;;;;;5092317;28;20317;-64
2021/12/07 13:21:26;;;;;;;0.67;0.67;;;;;;;;;;5091192;28;20364;-64
2021/12/07 13:24:16;;;;;;;0.50;0.50;;;;;;;;;;5090603;28;20214;-64
2021/12/07 13:27:10;;;;;;;0.67;0.67;;;;;;;;;;5091724;28;20299;-65
2021/12/07 13:29:57;;;;;;;0.50;0.50;;;;;;;;;;5090831;28;20217;-65
2021/12/07 13:33:03;;;;;;;0.60;0.60;;;;;;;;;;5091888;28;20268;-64
2021/12/07 13:35:53;;;;;;;0.33;0.33;;;;;;;;;;5091689;28;20230;-64
2021/12/07 13:38:40;;;;;;;0.40;0.40;;;;;;;;;;5090990;28;20312;-64
2021/12/07 13:41:27;;;;;;;0.50;0.50;;;;;;;;;;5090931;28;20316;-64
2021/12/07 13:44:14;;;;;;;0.40;0.40;;;;;;;;;;5091978;28;20255;-64
2021/12/07 13:47:05;;;;;;;0.40;0.40;;;;;;;;;;5091215;28;20637;-64
2021/12/07 13:49:54;;;;;;;0.40;0.40;;;;;;;;;;5091238;28;20673;-64
2021/12/07 13:52:45;;;;;;;0.60;0.60;;;;;;;;;;5079827;28;20210;-64
2021/12/07 13:55:36;;;;;;;0.53;0.53;;;;;;;;;;5089850;28;20239;-65
2021/12/07 13:58:23;;;;;;;0.53;0.53;;;;;;;;;;5091372;28;20701;-65
2021/12/07 14:01:10;;;;;;;0.40;0.40;;;;;;;;;;5090751;28;20210;-64
2021/12/07 14:03:57;;;;;;;0.40;0.40;;;;;;;;;;5086986;28;20638;-65
2021/12/07 14:06:48;;;;;;;0.47;0.47;;;;;;;;;;5082994;28;20351;-64
2021/12/07 14:09:36;;;;;;;0.63;0.63;;;;;;;;;;5089034;28;20206;-64
2021/12/07 14:12:24;;;;;;;0.60;0.60;;;;;;;;;;5069970;28;20196;-64
2021/12/07 14:15:15;;;;;;;0.53;0.53;;;;;;;;;;5071601;28;20207;-64
2021/12/07 14:18:05;;;;;;;0.47;0.47;;;;;;;;;;5071446;28;20293;-64
2021/12/07 14:20:55;;;;;;;0.63;0.63;;;;;;;;;;5082793;28;20313;-65
2021/12/07 14:23:44;;;;;;;0.67;0.67;;;;;;;;;;5091572;28;20283;-64
2021/12/07 14:26:36;;;;;;;0.50;0.50;;;;;;;;;;5095597;28;20598;-64
2021/12/07 14:29:25;;;;;;;0.60;0.60;;;;;;;;;;5104736;28;20198;-64
2021/12/07 14:32:12;;;;;;;0.67;0.67;;;;;;;;;;5090489;28;20706;-65
2021/12/07 14:35:00;;;;;;;0.50;0.50;;;;;;;;;;5096087;28;20234;-64
2021/12/07 14:37:48;;;;;;;0.50;0.50;;;;;;;;;;5107430;28;20799;-64
2021/12/07 14:40:35;;;;;;;0.60;0.60;;;;;;;;;;5097502;28;20229;-65
2021/12/07 14:43:23;;;;;;;0.70;0.70;;;;;;;;;;5091186;28;20268;-64
2021/12/07 14:46:12;;;;;;;0.67;0.67;;;;;;;;;;5088892;28;20237;-64
2021/12/07 14:48:59;;;;;;;0.63;0.63;;;;;;;;;;5100787;28;20777;-65
2021/12/07 14:51:48;;;;;;;0.63;0.63;;;;;;;;;;5087982;28;20212;-65
2021/12/07 14:54:35;;;;;;;0.70;0.70;;;;;;;;;;5106929;28;20206;-64
2021/12/07 14:57:22;;;;;;;0.60;0.60;;;;;;;;;;5104871;28;20745;-64
2021/12/07 15:00:11;;;;;;;0.70;0.70;;;;;;;;;;5099366;28;20233;-65
2021/12/07 15:02:58;;;;;;;0.60;0.60;;;;;;;;;;5104135;27;20213;-65
2021/12/07 15:05:45;;;;;;;0.47;0.47;;;;;;;;;;5099301;28;20263;-64
2021/12/07 15:08:34;;;;;;;0.80;0.80;;;;;;;;;;5093878;28;20190;-65
2021/12/07 15:11:21;;;;;;;0.70;0.70;;;;;;;;;;5106694;28;20286;-65
2021/12/07 15:14:11;;;;;;;0.70;0.70;;;;;;;;;;5090706;28;20210;-64
2021/12/07 15:17:01;;;;;;;0.60;0.60;;;;;;;;;;5107265;28;20737;-65
2021/12/07 15:19:48;;;;;;;0.50;0.50;;;;;;;;;;5100707;28;20226;-65
2021/12/07 15:22:35;;;;;;;0.70;0.70;;;;;;;;;;5090146;28;20313;-64
2021/12/07 15:25:22;;;;;;;0.60;0.60;;;;;;;;;;5089928;28;20206;-65
2021/12/07 15:28:09;;;;;;;0.50;0.50;;;;;;;;;;5098460;28;20284;-65
2021/12/07 15:30:56;;;;;;;0.50;0.50;;;;;;;;;;5099153;28;20285;-65
2021/12/07 15:33:44;;;;;;;0.47;0.47;;;;;;;;;;5094432;28;20633;-65
2021/12/07 15:36:36;;;;;;;0.60;0.60;;;;;;;;;;5090294;28;20247;-65
2021/12/07 15:39:24;;;;;;;0.40;0.40;;;;;;;;;;5090409;28;20264;-64
2021/12/07 15:42:14;;;;;;;0.63;0.63;;;;;;;;;;5089552;28;20234;-65
2021/12/07 15:45:06;;;;;;;0.60;0.60;;;;;;;;;;5089388;28;20278;-65
2021/12/07 15:47:53;;;;;;;0.50;0.50;;;;;;;;;;5109592;28;20615;-65
2021/12/07 15:50:42;;;;;;;0.40;0.40;;;;;;;;;;5108914;28;20210;-65
2021/12/07 15:53:29;;;;;;;0.67;0.67;;;;;;;;;;5107998;28;20339;-64
2021/12/07 15:56:17;;;;;;;0.63;0.63;;;;;;;;;;5087800;28;20212;-65
2021/12/07 15:59:13;;;;;;;0.50;0.50;;;;;;;;;;5089544;28;20237;-64
2021/12/07 16:02:00;;;;;;;0.50;0.50;;;;;;;;;;5104744;28;20238;-65
2021/12/07 16:04:47;;;;;;;0.33;0.33;;;;;;;;;;5096162;28;20248;-65
2021/12/07 16:07:43;;;;;;;0.53;0.53;;;;;;;;;;5090277;28;20256;-66
2021/12/07 16:10:30;;;;;;;0.50;0.50;;;;;;;;;;5105606;28;20229;-65
2021/12/07 16:13:19;;;;;;;0.60;0.60;;;;;;;;;;5107950;28;20555;-64
2021/12/07 16:16:08;;;;;;;0.60;0.60;;;;;;;;;;5108083;28;20202;-65
2021/12/07 16:18:57;;;;;;;0.50;0.50;;;;;;;;;;5109593;28;20218;-64
2021/12/07 16:21:44;;;;;;;0.50;0.50;;;;;;;;;;5109524;28;20234;-65
2021/12/07 16:24:32;;;;;;;0.70;0.70;;;;;;;;;;5109068;28;20291;-65
2021/12/07 16:27:19;;;;;;;0.93;0.93;;;;;;;;;;5098339;28;20287;-65
2021/12/07 16:30:09;;;;;;;0.90;0.90;;;;;;;;;;5107829;28;20657;-65
2021/12/07 16:32:56;;;;;;;0.80;0.80;;;;;;;;;;5109790;28;20254;-65
2021/12/07 16:35:43;;;;;;;0.77;0.77;;;;;;;;;;5089680;28;20267;-64
2021/12/07 16:38:30;;;;;;;0.77;0.77;;;;;;;;;;5089118;28;20356;-65
2021/12/07 16:41:18;;;;;;;0.60;0.60;;;;;;;;;;5102858;28;20283;-65
2021/12/07 16:44:06;;;;;;;0.70;0.70;;;;;;;;;;5092010;28;20195;-65
2021/12/07 16:46:54;;;;;;;0.60;0.60;;;;;;;;;;5088280;28;20285;-64
2021/12/07 16:49:41;;;;;;;0.90;0.90;;;;;;;;;;5092860;28;20215;-65
2021/12/07 16:52:28;;;;;;;0.83;0.83;;;;;;;;;;5089597;28;20210;-65
2021/12/07 16:55:18;;;;;;;0.60;0.60;;;;;;;;;;5106604;28;20273;-65
2021/12/07 16:58:07;;;;;;;0.67;0.67;;;;;;;;;;5110192;28;20217;-64
2021/12/07 17:00:55;;;;;;;0.80;0.80;;;;;;;;;;5112947;28;20335;-65
2021/12/07 17:03:44;;;;;;;0.70;0.70;;;;;;;;;;5110268;28;20222;-65
2021/12/07 17:06:31;;;;;;;0.70;0.70;;;;;;;;;;5107454;28;20234;-65
2021/12/07 17:09:18;;;;;;;0.83;0.70;;;;;;;;;;5100270;28;20194;-65
2021/12/07 17:12:06;;;;;;;0.70;0.70;;;;;;;;;;5103543;28;20292;-64
2021/12/07 17:14:54;;;;;;;0.83;0.83;;;;;;;;;;5091531;28;20692;-65
2021/12/07 17:17:42;;;;;;;0.87;0.87;;;;;;;;;;5092468;28;20272;-64
2021/12/07 17:20:29;;;;;;;1.00;1.00;;;;;;;;;;5083093;28;20235;-64
2021/12/07 17:23:17;;;;;;;0.90;0.90;;;;;;;;;;5079050;28;21059;-65
2021/12/07 17:26:05;;;;;;;0.77;0.77;;;;;;;;;;5091530;28;20203;-64
2021/12/07 17:28:52;;;;;;;0.60;0.60;;;;;;;;;;5092210;28;20222;-65
2021/12/07 17:31:41;;;;;;;0.70;0.70;;;;;;;;;;5088811;28;20360;-65
2021/12/07 17:34:27;;;;;;;0.90;0.87;;;;;;;;;;5092223;28;20207;-64
2021/12/07 17:37:14;;;;;;;0.70;0.70;;;;;;;;;;5085409;28;20238;-65
2021/12/07 17:40:02;;;;;;;0.60;0.60;;;;;;;;;;5089131;28;20257;-65
2021/12/07 17:42:50;;;;;;;0.77;0.60;;;;;;;;;;5087040;28;20678;-64
2021/12/07 17:45:37;;;;;;;0.90;0.90;;;;;;;;;;5088172;28;20675;-65
2021/12/07 17:48:25;;;;;;;0.90;0.90;;;;;;;;;;5090408;28;20199;-65
2021/12/07 17:51:12;;;;;;;0.70;0.70;;;;;;;;;;5091620;28;20256;-64
2021/12/07 17:53:59;;;;;;;0.63;0.63;;;;;;;;;;5091618;28;20297;-65
2021/12/07 17:56:47;;;;;;;1.07;1.07;;;;;;;;;;5091334;28;20331;-64
2021/12/07 17:59:34;;;;;;;0.93;0.93;;;;;;;;;;5091187;28;20333;-65
2021/12/07 18:02:21;;;;;;;0.90;0.90;;;;;;;;;;5089840;28;20202;-65
2021/12/07 18:05:10;;;;;;;1.00;1.00;;;;;;;;;;5090257;28;20280;-65
2021/12/07 18:07:57;;;;;;;0.73;0.73;;;;;;;;;;5090534;28;20777;-65
2021/12/07 18:10:45;;;;;;;0.90;0.90;;;;;;;;;;5079401;28;20210;-65
2021/12/07 18:13:32;;;;;;;1.00;1.00;;;;;;;;;;5075866;28;20213;-65
2021/12/07 18:16:19;;;;;;;1.03;1.00;;;;;;;;;;5089397;28;20214;-65